Horizon flight circling YKM


#1

I heard the last flight of the night fly over then a few minutes later I heard it fly over again. It’s circled several times, not sure if its on the ground yet.

http://flightaware.com/live/flight/QXE16/history/20071027/0604Z/KSEA/KYKM

Wx = clear and cold
KYKM 270556Z AUTO 28006KT 10SM CLR M02/M05 A3045